Palmers Lookout, Australia
Current Conditions -  °F | °C
As of 7:00 PM on Thursday 29 Jan 2015 (Local Time) from YMHB Reporting Station
Broken Clouds Broken Clouds  
Wind Chill: 57°   Ceiling: 3500
Heat Index: 57°   Visibility: 6mi
Dew Point: 43°   Wind: 18mph
Humidity: 59%   Direction: 170°S
Pressure: 30.21"   Gusts: NA
Location:  43.17°S, 147.83°E
Report Text: YMHB 290800Z 17016KT 9999 BKN035 BKN050 14/06 Q1023
Loading
Personal Weather Stations






























Interactive Weather Map New forecast layout! Learn more

10-Day Weather Forecast

Advertisements
Track Severe Weather on mobile